Time;durP1;ratioP1;P1;durP2;ratioP2;P2;SDS_P1;SDS_P2;PMS_P1;PMS_P2;Temp;Humidity;BMP_temperature;BMP_pressure;BME280_temperature;BME280_humidity;BME280_pressure;Samples;Min_cycle;Max_cycle;Signal;HPM_P1;HPM_P2
2022/01/31 00:01:00;;;;;;;;;;;4.60;99.90;;;;;;5047461;28;19970;-61
2022/01/31 00:03:25;;;;;;;;;;;4.40;99.90;;;;;;5034636;28;20258;-62
2022/01/31 00:05:51;;;;;;;;;;;4.60;99.90;;;;;;5040581;28;19982;-62
2022/01/31 00:08:22;;;;;;;;;;;;;;;;;;5038593;28;20011;-62
2022/01/31 00:10:48;;;;;;;;;;;4.30;99.90;;;;;;5056195;28;19998;-62
2022/01/31 00:13:20;;;;;;;;;;;4.40;99.90;;;;;;5065527;28;19998;-62
2022/01/31 00:15:52;;;;;;;;;;;4.50;99.90;;;;;;5071887;28;19917;-61
2022/01/31 00:18:18;;;;;;;;;;;4.30;99.90;;;;;;5032978;28;19924;-61
2022/01/31 00:20:43;;;;;;;;;;;4.70;99.90;;;;;;5042200;28;19917;-61
2022/01/31 00:23:09;;;;;;;;;;;4.40;99.90;;;;;;5044444;28;19916;-62
2022/01/31 00:25:35;;;;;;;;;;;4.80;99.90;;;;;;5073398;28;20268;-61
2022/01/31 00:28:00;;;;;;;;;;;4.50;99.90;;;;;;5026478;28;20425;-61
2022/01/31 00:30:26;;;;;;;;;;;4.70;99.90;;;;;;5049568;28;20392;-61
2022/01/31 00:32:52;;;;;;;;;;;;;;;;;;5046826;28;19917;-61
2022/01/31 00:35:17;;;;;;;;;;;4.90;99.90;;;;;;5070217;28;19924;-61
2022/01/31 00:37:43;;;;;;;;;;;4.70;99.90;;;;;;5039626;28;19917;-61
2022/01/31 00:40:09;;;;;;;;;;;4.80;99.90;;;;;;5058105;28;19917;-62
2022/01/31 00:42:35;;;;;;;;;;;4.80;99.90;;;;;;5040054;28;19924;-61
2022/01/31 00:45:17;;;;;;;;;;;4.60;99.90;;;;;;5033451;28;19921;-61
2022/01/31 00:47:47;;;;;;;;;;;4.50;99.90;;;;;;5039451;28;19991;-61
2022/01/31 00:50:15;;;;;;;;;;;4.80;99.90;;;;;;5031610;28;19917;-61
2022/01/31 00:52:41;;;;;;;;;;;4.40;99.90;;;;;;5059214;28;19916;-62
2022/01/31 00:55:08;;;;;;;;;;;4.70;99.90;;;;;;5068949;28;19921;-61
2022/01/31 00:57:33;;;;;;;;;;;4.70;99.90;;;;;;5060360;28;19916;-62
2022/01/31 00:59:59;;;;;;;;;;;4.20;99.90;;;;;;5039830;28;19916;-61
2022/01/31 01:02:25;;;;;;;;;;;4.40;99.90;;;;;;5048085;28;19928;-61
2022/01/31 01:04:51;;;;;;;;;;;4.40;99.90;;;;;;5024981;28;20023;-61
2022/01/31 01:07:19;;;;;;;;;;;;;;;;;;5054325;28;20381;-60
2022/01/31 01:09:45;;;;;;;;;;;4.20;99.90;;;;;;5057501;28;19916;-59
2022/01/31 01:12:11;;;;;;;;;;;4.20;99.90;;;;;;5039880;28;19917;-59
2022/01/31 01:14:37;;;;;;;;;;;4.30;99.90;;;;;;5055722;28;19995;-59
2022/01/31 01:17:02;;;;;;;;;;;3.80;99.90;;;;;;5050327;28;19931;-59
2022/01/31 01:19:31;;;;;;;;;;;4.40;99.90;;;;;;5055542;28;20403;-58
2022/01/31 01:21:57;;;;;;;;;;;;;;;;;;5051520;28;19971;-58
2022/01/31 01:24:22;;;;;;;;;;;4.20;99.90;;;;;;5044774;28;19917;-58
2022/01/31 01:26:48;;;;;;;;;;;4.00;99.90;;;;;;5036879;28;20366;-58
2022/01/31 01:29:14;;;;;;;;;;;4.10;99.90;;;;;;5056284;28;19923;-58
2022/01/31 01:31:41;;;;;;;;;;;4.00;99.90;;;;;;5062883;28;20349;-58
2022/01/31 01:34:07;;;;;;;;;;;;;;;;;;5059022;28;19921;-58
2022/01/31 01:36:34;;;;;;;;;;;3.90;99.90;;;;;;5056138;28;19920;-58
2022/01/31 01:39:00;;;;;;;;;;;3.60;99.90;;;;;;5021881;28;19916;-58
2022/01/31 01:41:25;;;;;;;;;;;4.10;99.90;;;;;;5048817;28;19940;-58
2022/01/31 01:43:51;;;;;;;;;;;4.10;99.90;;;;;;5046215;28;19921;-58
2022/01/31 01:46:17;;;;;;;;;;;;;;;;;;5045883;28;19921;-58
2022/01/31 01:48:42;;;;;;;;;;;4.10;99.90;;;;;;5051233;28;19924;-58
2022/01/31 01:51:08;;;;;;;;;;;4.00;99.90;;;;;;5052692;28;20316;-58
2022/01/31 01:53:33;;;;;;;;;;;4.20;99.90;;;;;;5038845;28;19928;-57
2022/01/31 01:55:59;;;;;;;;;;;4.00;99.90;;;;;;5054329;28;19917;-58
2022/01/31 01:58:26;;;;;;;;;;;4.00;99.90;;;;;;5036056;28;20257;-58
2022/01/31 02:00:59;;;;;;;;;;;4.10;99.90;;;;;;5053166;28;19917;-58
2022/01/31 02:03:28;;;;;;;;;;;4.20;99.90;;;;;;5044909;28;19917;-58
2022/01/31 02:05:54;;;;;;;;;;;4.40;99.90;;;;;;5063220;28;20527;-58
2022/01/31 02:08:19;;;;;;;;;;;4.00;99.90;;;;;;5051942;28;20015;-58
2022/01/31 02:10:46;;;;;;;;;;;4.10;99.90;;;;;;5052380;28;19923;-58
2022/01/31 02:13:11;;;;;;;;;;;4.20;99.90;;;;;;5052330;28;19968;-58
2022/01/31 02:15:38;;;;;;;;;;;4.20;99.90;;;;;;5038459;28;19963;-58
2022/01/31 02:18:04;;;;;;;;;;;4.10;99.90;;;;;;5036013;28;19923;-58
2022/01/31 02:20:30;;;;;;;;;;;4.40;99.90;;;;;;5045515;28;19929;-58
2022/01/31 02:22:56;;;;;;;;;;;4.10;99.90;;;;;;5069534;28;19920;-57
2022/01/31 02:25:22;;;;;;;;;;;4.00;99.90;;;;;;5035712;28;20322;-58
2022/01/31 02:27:47;;;;;;;;;;;4.40;99.90;;;;;;5055953;28;19974;-58
2022/01/31 02:30:15;;;;;;;;;;;4.10;99.90;;;;;;5018026;28;19924;-58
2022/01/31 02:32:41;;;;;;;;;;;4.10;99.90;;;;;;5037478;28;19971;-58
2022/01/31 02:35:07;;;;;;;;;;;;;;;;;;5065200;28;19924;-58
2022/01/31 02:37:33;;;;;;;;;;;4.50;99.90;;;;;;5068417;28;19917;-58
2022/01/31 02:39:58;;;;;;;;;;;4.40;99.90;;;;;;5036057;28;19917;-57
2022/01/31 02:42:24;;;;;;;;;;;4.30;99.90;;;;;;5060525;28;20050;-58
2022/01/31 02:44:50;;;;;;;;;;;4.80;99.90;;;;;;5053117;28;19975;-58
2022/01/31 02:47:22;;;;;;;;;;;4.70;99.90;;;;;;5064195;28;19916;-58
2022/01/31 02:49:55;;;;;;;;;;;4.80;99.90;;;;;;5041193;28;19923;-61
2022/01/31 02:52:24;;;;;;;;;;;5.00;99.90;;;;;;5047676;28;19916;-58
2022/01/31 02:54:50;;;;;;;;;;;5.10;99.90;;;;;;5038377;28;19921;-58
2022/01/31 02:57:15;;;;;;;;;;;5.00;99.90;;;;;;5037361;28;19923;-58
2022/01/31 02:59:41;;;;;;;;;;;5.00;99.90;;;;;;5056897;28;19916;-59
2022/01/31 03:02:07;;;;;;;;;;;;;;;;;;5045977;28;19920;-58
2022/01/31 03:04:32;;;;;;;;;;;5.20;99.90;;;;;;5054298;28;19923;-58
2022/01/31 03:06:58;;;;;;;;;;;5.40;99.90;;;;;;5054913;28;20007;-58
2022/01/31 03:09:23;;;;;;;;;;;5.60;99.90;;;;;;5063536;28;19938;-58
2022/01/31 03:11:49;;;;;;;;;;;5.70;99.90;;;;;;5074257;28;19923;-58
2022/01/31 03:14:16;;;;;;;;;;;5.80;99.90;;;;;;5074063;28;19916;-58
2022/01/31 03:16:45;;;;;;;;;;;5.90;99.90;;;;;;5035294;28;20373;-58
2022/01/31 03:19:10;;;;;;;;;;;5.90;99.90;;;;;;5034796;28;20281;-59
2022/01/31 03:21:36;;;;;;;;;;;;;;;;;;5048408;28;19917;-59
2022/01/31 03:24:02;;;;;;;;;;;5.90;99.90;;;;;;5054511;28;19963;-57
2022/01/31 03:26:28;;;;;;;;;;;5.90;99.90;;;;;;5064775;28;19923;-59
2022/01/31 03:28:53;;;;;;;;;;;6.10;99.90;;;;;;5037987;28;19952;-59
2022/01/31 03:31:20;;;;;;;;;;;6.10;99.90;;;;;;5026564;28;20074;-59
2022/01/31 03:33:46;;;;;;;;;;;6.00;99.90;;;;;;5073988;28;20353;-59
2022/01/31 03:36:11;;;;;;;;;;;5.90;99.90;;;;;;5016065;28;19917;-59
2022/01/31 03:38:40;;;;;;;;;;;;;;;;;;5035122;28;19920;-59
2022/01/31 03:41:07;;;;;;;;;;;5.80;99.90;;;;;;5044130;28;20281;-62
2022/01/31 03:43:32;;;;;;;;;;;6.00;99.90;;;;;;5033465;28;20003;-60
2022/01/31 03:45:58;;;;;;;;;;;6.00;99.90;;;;;;5044838;28;20338;-60
2022/01/31 03:48:24;;;;;;;;;;;5.90;99.90;;;;;;5043137;28;20400;-60
2022/01/31 03:50:50;;;;;;;;;;;6.20;99.90;;;;;;5064655;28;19920;-59
2022/01/31 03:53:16;;;;;;;;;;;;;;;;;;5071696;28;19923;-59
2022/01/31 03:55:42;;;;;;;;;;;6.00;99.90;;;;;;5037329;28;22339;-60
2022/01/31 03:58:08;;;;;;;;;;;;;;;;;;5051291;28;19917;-60
2022/01/31 04:00:33;;;;;;;;;;;6.10;99.90;;;;;;5037682;28;20257;-61
2022/01/31 04:02:59;;;;;;;;;;;6.10;99.90;;;;;;5067921;28;19916;-60
2022/01/31 04:05:25;;;;;;;;;;;6.00;99.90;;;;;;5066747;28;19923;-60
2022/01/31 04:07:50;;;;;;;;;;;6.00;99.90;;;;;;5044419;28;19917;-60
2022/01/31 04:10:16;;;;;;;;;;;6.00;99.90;;;;;;5028175;28;19924;-60
2022/01/31 04:12:41;;;;;;;;;;;5.90;99.90;;;;;;5055889;28;19916;-61
2022/01/31 04:15:07;;;;;;;;;;;;;;;;;;5041367;28;20016;-62
2022/01/31 04:17:33;;;;;;;;;;;6.00;99.90;;;;;;5034244;28;19939;-61
2022/01/31 04:19:59;;;;;;;;;;;6.10;99.90;;;;;;5054943;28;19916;-61
2022/01/31 04:22:27;;;;;;;;;;;5.90;99.90;;;;;;5044116;28;20398;-61
2022/01/31 04:24:59;;;;;;;;;;;;;;;;;;5018694;28;19967;-61
2022/01/31 04:27:28;;;;;;;;;;;5.80;99.90;;;;;;5041425;28;19979;-61
2022/01/31 04:29:53;;;;;;;;;;;5.70;99.90;;;;;;5031295;28;19979;-60
2022/01/31 04:32:19;;;;;;;;;;;;;;;;;;5037272;28;20358;-60
2022/01/31 04:34:45;;;;;;;;;;;5.80;99.90;;;;;;5058882;28;19917;-61
2022/01/31 04:37:10;;;;;;;;;;;5.60;99.90;;;;;;5022033;28;19917;-60
2022/01/31 04:39:36;;;;;;;;;;;5.50;99.90;;;;;;5038137;28;19917;-58
2022/01/31 04:42:02;;;;;;;;;;;5.60;99.90;;;;;;5038110;28;19964;-60
2022/01/31 04:44:28;;;;;;;;;;;5.70;99.90;;;;;;5047240;28;20234;-60
2022/01/31 04:46:54;;;;;;;;;;;5.80;99.90;;;;;;5054545;28;19972;-60
2022/01/31 04:49:20;;;;;;;;;;;5.70;99.90;;;;;;5044186;28;19917;-60
2022/01/31 04:51:46;;;;;;;;;;;5.50;99.90;;;;;;5043039;28;19923;-61
2022/01/31 04:54:12;;;;;;;;;;;5.70;99.90;;;;;;5056378;28;19917;-60
2022/01/31 04:56:40;;;;;;;;;;;;;;;;;;5056728;28;20373;-61
2022/01/31 04:59:06;;;;;;;;;;;5.80;99.90;;;;;;5022419;28;20393;-59
2022/01/31 05:01:32;;;;;;;;;;;5.80;99.90;;;;;;5048493;28;19929;-59
2022/01/31 05:03:57;;;;;;;;;;;5.30;99.90;;;;;;5043778;28;20015;-58
2022/01/31 05:06:30;;;;;;;;;;;5.20;99.90;;;;;;5057972;28;19924;-58
2022/01/31 05:08:56;;;;;;;;;;;5.10;99.90;;;;;;5046561;28;19924;-58
2022/01/31 05:11:21;;;;;;;;;;;5.00;99.90;;;;;;5052248;28;20285;-58
2022/01/31 05:13:47;;;;;;;;;;;4.70;99.90;;;;;;5036878;28;19920;-58
2022/01/31 05:16:13;;;;;;;;;;;4.90;99.90;;;;;;5028727;28;19916;-57
2022/01/31 05:18:39;;;;;;;;;;;;;;;;;;5045929;28;19920;-58
2022/01/31 05:21:05;;;;;;;;;;;4.90;99.90;;;;;;5062674;28;20452;-58
2022/01/31 05:23:31;;;;;;;;;;;5.10;99.90;;;;;;5057234;28;19917;-57
2022/01/31 05:25:57;;;;;;;;;;;;;;;;;;5033863;28;19921;-57
2022/01/31 05:28:23;;;;;;;;;;;4.70;99.90;;;;;;5063186;28;20268;-58
2022/01/31 05:30:48;;;;;;;;;;;4.90;99.90;;;;;;5076807;28;19924;-58
2022/01/31 05:33:14;;;;;;;;;;;5.00;99.90;;;;;;5019182;28;19917;-58
2022/01/31 05:35:39;;;;;;;;;;;5.20;99.90;;;;;;5058488;28;19920;-58
2022/01/31 05:38:05;;;;;;;;;;;5.10;99.90;;;;;;5036727;28;20015;-58
2022/01/31 05:40:31;;;;;;;;;;;4.90;99.90;;;;;;5039823;28;20025;-58
2022/01/31 05:42:56;;;;;;;;;;;4.90;99.90;;;;;;5051116;28;19916;-59
2022/01/31 05:45:22;;;;;;;;;;;4.80;99.90;;;;;;5039876;28;19920;-58
2022/01/31 05:47:47;;;;;;;;;;;5.20;99.90;;;;;;5051661;28;19916;-59
2022/01/31 05:50:13;;;;;;;;;;;5.20;99.90;;;;;;5037896;28;19916;-58
2022/01/31 05:52:38;;;;;;;;;;;5.10;99.90;;;;;;5068596;28;19916;-58
2022/01/31 05:55:04;;;;;;;;;;;;;;;;;;5055244;28;19917;-60
2022/01/31 05:57:32;;;;;;;;;;;5.30;99.90;;;;;;5065151;28;19923;-58
2022/01/31 05:59:58;;;;;;;;;;;5.30;99.90;;;;;;5037539;28;19917;-58
2022/01/31 06:02:24;;;;;;;;;;;5.50;99.90;;;;;;5038025;28;20377;-59
2022/01/31 06:04:49;;;;;;;;;;;5.00;99.90;;;;;;5035583;28;19917;-59
2022/01/31 06:07:15;;;;;;;;;;;5.40;99.90;;;;;;5042293;28;19956;-61
2022/01/31 06:09:41;;;;;;;;;;;5.20;99.90;;;;;;5051728;28;19916;-58
2022/01/31 06:12:06;;;;;;;;;;;5.30;99.90;;;;;;5059232;28;19917;-59
2022/01/31 06:14:32;;;;;;;;;;;5.00;99.90;;;;;;5036381;28;19917;-58
2022/01/31 06:16:58;;;;;;;;;;;5.50;99.90;;;;;;5041612;28;20011;-59
2022/01/31 06:19:23;;;;;;;;;;;5.50;99.90;;;;;;5043969;28;20239;-59
2022/01/31 06:21:49;;;;;;;;;;;5.20;99.90;;;;;;5030711;28;19924;-59
2022/01/31 06:24:15;;;;;;;;;;;5.50;99.90;;;;;;5027296;28;20327;-59
2022/01/31 06:26:41;;;;;;;;;;;;;;;;;;5041378;28;19976;-59
2022/01/31 06:29:07;;;;;;;;;;;5.40;99.90;;;;;;4984045;28;19921;-58
2022/01/31 06:31:33;;;;;;;;;;;5.30;99.90;;;;;;5017423;28;19917;-59
2022/01/31 06:33:59;;;;;;;;;;;5.30;99.90;;;;;;5020512;28;19917;-58
2022/01/31 06:36:24;;;;;;;;;;;5.40;99.90;;;;;;5041535;28;20333;-58
2022/01/31 06:38:50;;;;;;;;;;;;;;;;;;5022006;28;19944;-58
2022/01/31 06:41:17;;;;;;;;;;;5.30;99.90;;;;;;5035547;28;19917;-58
2022/01/31 06:43:43;;;;;;;;;;;5.20;99.90;;;;;;5000745;28;20314;-58
2022/01/31 06:46:09;;;;;;;;;;;5.10;99.90;;;;;;5018202;28;19918;-58
2022/01/31 06:48:34;;;;;;;;;;;5.20;99.90;;;;;;5021942;28;19917;-58
2022/01/31 06:51:01;;;;;;;;;;;5.10;99.90;;;;;;5031063;28;19917;-58
2022/01/31 06:53:28;;;;;;;;;;;5.10;99.90;;;;;;5014499;28;19967;-60
2022/01/31 06:55:54;;;;;;;;;;;4.90;99.90;;;;;;5036519;28;19924;-58
2022/01/31 06:58:20;;;;;;;;;;;5.30;99.90;;;;;;5040465;28;19916;-58
2022/01/31 07:00:45;;;;;;;;;;;5.30;99.90;;;;;;5034907;28;19924;-57
2022/01/31 07:03:13;;;;;;;;;;;;;;;;;;5034358;28;19924;-57
2022/01/31 07:05:45;;;;;;;;;;;5.40;99.90;;;;;;5017519;28;20361;-58
2022/01/31 07:08:11;;;;;;;;;;;;;;;;;;5033900;28;19917;-58
2022/01/31 07:10:37;;;;;;;;;;;5.10;99.90;;;;;;5017703;28;19924;-58
2022/01/31 07:13:11;;;;;;;;;;;;;;;;;;5038047;28;19923;-58
2022/01/31 07:15:37;;;;;;;;;;;;;;;;;;5017903;28;19921;-58
2022/01/31 07:18:03;;;;;;;;;;;5.50;99.90;;;;;;5025196;28;19972;-56
2022/01/31 07:20:37;;;;;;;;;;;5.30;99.90;;;;;;4997870;28;19923;-58
2022/01/31 07:23:09;;;;;;;;;;;5.70;99.90;;;;;;5015611;28;19925;-57
2022/01/31 07:25:35;;;;;;;;;;;;;;;;;;5048210;28;19923;-58
2022/01/31 07:28:01;;;;;;;;;;;;;;;;;;5039457;28;19916;-58
2022/01/31 07:30:27;;;;;;;;;;;;;;;;;;5024035;28;20308;-58
2022/01/31 07:32:52;;;;;;;;;;;5.50;99.90;;;;;;5030830;28;19971;-58
2022/01/31 07:35:18;;;;;;;;;;;;;;;;;;5015082;28;20008;-58
2022/01/31 07:37:44;;;;;;;;;;;5.70;99.90;;;;;;5017182;28;19917;-58
2022/01/31 07:40:10;;;;;;;;;;;5.80;99.90;;;;;;5014387;28;20380;-58
2022/01/31 07:42:35;;;;;;;;;;;5.80;99.90;;;;;;5003693;28;19928;-59
2022/01/31 07:45:01;;;;;;;;;;;5.30;99.90;;;;;;5024906;28;20019;-59
2022/01/31 07:47:26;;;;;;;;;;;5.80;99.90;;;;;;5012345;28;20366;-58
2022/01/31 07:49:52;;;;;;;;;;;5.50;99.90;;;;;;5016691;28;19917;-58
2022/01/31 07:52:18;;;;;;;;;;;5.70;99.90;;;;;;5008003;28;19917;-59
2022/01/31 07:54:44;;;;;;;;;;;5.90;99.90;;;;;;5035030;28;19981;-58
2022/01/31 07:57:10;;;;;;;;;;;5.60;99.90;;;;;;5018210;28;20367;-59
2022/01/31 07:59:35;;;;;;;;;;;5.60;99.90;;;;;;5021528;28;19917;-59
2022/01/31 08:02:01;;;;;;;;;;;5.50;99.90;;;;;;4998911;28;19991;-59
2022/01/31 08:04:26;;;;;;;;;;;5.90;99.90;;;;;;5032101;28;19924;-59
2022/01/31 08:06:52;;;;;;;;;;;6.00;99.90;;;;;;5033053;28;19971;-59
2022/01/31 08:09:18;;;;;;;;;;;;;;;;;;5034110;28;20011;-59
2022/01/31 08:11:43;;;;;;;;;;;6.10;99.90;;;;;;5031836;28;20008;-59
2022/01/31 08:14:10;;;;;;;;;;;6.10;99.90;;;;;;5034014;28;19917;-58
2022/01/31 08:16:37;;;;;;;;;;;6.00;99.90;;;;;;5002628;28;19921;-59
2022/01/31 08:19:05;;;;;;;;;;;6.00;99.90;;;;;;5014134;28;20000;-60
2022/01/31 08:21:30;;;;;;;;;;;5.90;99.90;;;;;;5005596;28;20003;-61
2022/01/31 08:23:56;;;;;;;;;;;5.90;99.90;;;;;;5048585;28;20027;-59
2022/01/31 08:26:21;;;;;;;;;;;6.10;99.90;;;;;;5053714;28;19921;-59
2022/01/31 08:28:56;;;;;;;;;;;5.80;99.90;;;;;;5043593;28;19921;-59
2022/01/31 08:31:45;;;;;;;;;;;6.10;99.90;;;;;;5039683;28;20273;-59
2022/01/31 08:36:39;;;;;;;;;;;6.00;99.90;;;;;;5043895;28;19924;-59
2022/01/31 08:39:08;;;;;;;;;;;5.60;99.90;;;;;;5070028;28;19916;-59
2022/01/31 08:41:36;;;;;;;;;;;6.00;99.90;;;;;;5067156;28;19916;-59
2022/01/31 08:44:01;;;;;;;;;;;5.90;99.90;;;;;;5037063;28;19917;-59
2022/01/31 08:46:27;;;;;;;;;;;6.20;99.90;;;;;;5032571;28;19921;-58
2022/01/31 08:48:55;;;;;;;;;;;5.80;99.90;;;;;;5033496;28;19959;-59
2022/01/31 08:51:20;;;;;;;;;;;5.90;99.90;;;;;;5034247;28;19963;-59
2022/01/31 08:53:48;;;;;;;;;;;6.10;99.90;;;;;;5022806;28;19921;-59
2022/01/31 08:56:14;;;;;;;;;;;5.60;99.90;;;;;;5068721;28;20265;-59
2022/01/31 08:58:48;;;;;;;;;;;6.00;99.90;;;;;;5049806;28;19921;-59
2022/01/31 09:01:17;;;;;;;;;;;;;;;;;;5033291;28;19917;-59
2022/01/31 09:06:10;;;;;;;;;;;5.90;99.90;;;;;;5088877;28;20329;-59
2022/01/31 09:08:36;;;;;;;;;;;6.10;99.90;;;;;;5069318;28;20006;-60
2022/01/31 09:11:03;;;;;;;;;;;5.80;99.90;;;;;;5063756;28;19955;-59
2022/01/31 09:13:28;;;;;;;;;;;6.30;99.90;;;;;;5068107;28;19923;-59
2022/01/31 09:15:54;;;;;;;;;;;5.80;99.90;;;;;;5037539;28;20011;-59
2022/01/31 09:18:20;;;;;;;;;;;6.20;99.90;;;;;;5057000;28;19967;-60
2022/01/31 09:20:45;;;;;;;;;;;5.90;99.90;;;;;;5039591;28;20343;-60
2022/01/31 09:23:11;;;;;;;;;;;6.10;99.90;;;;;;5059986;28;19917;-60
2022/01/31 09:25:43;;;;;;;;;;;5.90;99.90;;;;;;5038122;28;19917;-62
2022/01/31 09:28:09;;;;;;;;;;;5.90;99.90;;;;;;5039795;28;19924;-61
2022/01/31 09:30:35;;;;;;;;;;;6.10;99.90;;;;;;5051457;28;19917;-60
2022/01/31 09:33:01;;;;;;;;;;;6.50;99.90;;;;;;5035903;28;20004;-60
2022/01/31 09:35:26;;;;;;;;;;;6.10;99.90;;;;;;5037251;28;20019;-60
2022/01/31 09:37:52;;;;;;;;;;;6.30;99.90;;;;;;5050847;28;20302;-57
2022/01/31 09:40:21;;;;;;;;;;;6.10;99.90;;;;;;5050065;28;19920;-60
2022/01/31 09:43:03;;;;;;;;;;;6.50;99.90;;;;;;5035917;28;19917;-63
2022/01/31 09:48:32;;;;;;;;;;;6.50;99.90;;;;;;5041454;28;19928;-61
2022/01/31 09:50:59;;;;;;;;;;;6.70;99.90;;;;;;5019488;28;19917;-58
2022/01/31 09:53:24;;;;;;;;;;;6.70;99.90;;;;;;5019213;28;19921;-61
2022/01/31 09:55:52;;;;;;;;;;;;;;;;;;5038957;28;19929;-61
2022/01/31 09:58:19;;;;;;;;;;;6.70;99.90;;;;;;5046057;28;19921;-61
2022/01/31 10:00:44;;;;;;;;;;;;;;;;;;5065305;28;19924;-61
2022/01/31 10:03:11;;;;;;;;;;;6.70;99.90;;;;;;5052375;28;20272;-59
2022/01/31 10:05:37;;;;;;;;;;;;;;;;;;5049858;28;19917;-61
2022/01/31 10:08:10;;;;;;;;;;;6.60;99.90;;;;;;5039663;28;20031;-62
2022/01/31 10:10:40;;;;;;;;;;;6.90;99.90;;;;;;5035723;28;19917;-61
2022/01/31 10:16:29;;;;;;;;;;;;;;;;;;5043502;28;19924;-61
2022/01/31 10:19:13;;;;;;;;;;;7.10;99.90;;;;;;5042945;28;20277;-61
2022/01/31 10:21:56;;;;;;;;;;;7.00;99.90;;;;;;5044983;28;19936;-61
2022/01/31 10:24:23;;;;;;;;;;;6.90;99.90;;;;;;5047340;28;19920;-61
2022/01/31 10:26:48;;;;;;;;;;;6.80;99.90;;;;;;5046611;28;19916;-62
2022/01/31 10:29:18;;;;;;;;;;;6.90;99.90;;;;;;5047025;28;19916;-61
2022/01/31 10:31:44;;;;;;;;;;;;;;;;;;5055074;28;20336;-61
2022/01/31 10:34:14;;;;;;;;;;;6.50;99.90;;;;;;5034804;28;20019;-61
2022/01/31 10:36:39;;;;;;;;;;;6.80;99.90;;;;;;5044976;28;19924;-64
2022/01/31 10:39:14;;;;;;;;;;;6.50;99.90;;;;;;5040082;28;19917;-61
2022/01/31 10:53:01;;;;;;;;;;;6.30;99.90;;;;;;5037285;28;20357;-60
2022/01/31 10:55:27;;;;;;;;;;;;;;;;;;5027369;28;19917;-61
2022/01/31 10:58:03;;;;;;;;;;;6.10;99.90;;;;;;5017708;28;19917;-60
2022/01/31 11:00:29;;;;;;;;;;;;;;;;;;5050595;28;19924;-60
2022/01/31 11:02:54;;;;;;;;;;;6.00;99.90;;;;;;5036686;28;19917;-58
2022/01/31 11:05:22;;;;;;;;;;;6.30;99.90;;;;;;5021865;28;20408;-60
2022/01/31 11:07:47;;;;;;;;;;;6.30;99.90;;;;;;5054531;28;19920;-59
2022/01/31 11:10:17;;;;;;;;;;;5.90;99.90;;;;;;5054674;28;19916;-59
2022/01/31 11:12:43;;;;;;;;;;;;;;;;;;5054327;28;19917;-60
2022/01/31 11:15:09;;;;;;;;;;;6.20;99.90;;;;;;5057600;28;20000;-61
2022/01/31 11:17:35;;;;;;;;;;;;;;;;;;5046236;28;19939;-60
2022/01/31 11:20:02;;;;;;;;;;;;;;;;;;5034726;28;19924;-61
2022/01/31 11:22:36;;;;;;;;;;;6.10;99.90;;;;;;5015423;28;19920;-59
2022/01/31 11:25:02;;;;;;;;;;;;;;;;;;5040800;28;20484;-59
2022/01/31 11:27:28;;;;;;;;;;;6.00;99.90;;;;;;5035279;28;19925;-59
2022/01/31 11:29:55;;;;;;;;;;;6.40;99.90;;;;;;5038410;28;19918;-59
2022/01/31 11:32:25;;;;;;;;;;;6.20;99.90;;;;;;5035103;28;19979;-59
2022/01/31 11:34:51;;;;;;;;;;;6.60;99.90;;;;;;5034490;28;20235;-59
2022/01/31 11:37:18;;;;;;;;;;;6.10;99.90;;;;;;5035374;28;20242;-59
2022/01/31 11:39:44;;;;;;;;;;;;;;;;;;5034389;28;20282;-60
2022/01/31 11:42:09;;;;;;;;;;;6.50;99.90;;;;;;5053097;28;19916;-57
2022/01/31 11:44:44;;;;;;;;;;;6.60;99.90;;;;;;5052224;28;19982;-60
2022/01/31 11:47:10;;;;;;;;;;;6.50;99.90;;;;;;5051799;28;19966;-60
2022/01/31 11:49:46;;;;;;;;;;;6.90;99.90;;;;;;5047918;28;20005;-60
2022/01/31 11:52:12;;;;;;;;;;;;;;;;;;5047228;28;19916;-60
2022/01/31 11:54:38;;;;;;;;;;;;;;;;;;5053547;28;19920;-60
2022/01/31 11:57:11;;;;;;;;;;;6.70;99.90;;;;;;5053095;28;19979;-61
2022/01/31 11:59:37;;;;;;;;;;;6.90;99.90;;;;;;5029353;28;20362;-60
2022/01/31 12:02:02;;;;;;;;;;;7.20;99.90;;;;;;5049571;28;19924;-60
2022/01/31 12:04:31;;;;;;;;;;;7.20;99.90;;;;;;5048445;28;19916;-61
2022/01/31 12:06:57;;;;;;;;;;;7.20;99.90;;;;;;5059857;28;19916;-60
2022/01/31 12:09:24;;;;;;;;;;;;;;;;;;5053990;28;19917;-58
2022/01/31 12:11:56;;;;;;;;;;;7.10;99.90;;;;;;5017995;28;20384;-60
2022/01/31 12:14:29;;;;;;;;;;;7.30;99.90;;;;;;5048963;28;19963;-60
2022/01/31 12:17:16;;;;;;;;;;;7.00;99.90;;;;;;5042145;28;20023;-55
2022/01/31 12:19:59;;;;;;;;;;;6.90;99.90;;;;;;5033712;28;19917;-60
2022/01/31 12:22:38;;;;;;;;;;;7.20;99.90;;;;;;5050253;28;19917;-62
2022/01/31 12:25:23;;;;;;;;;;;7.00;99.90;;;;;;5053890;28;19917;-60
2022/01/31 12:27:49;;;;;;;;;;;;;;;;;;5046069;28;20380;-60
2022/01/31 12:30:15;;;;;;;;;;;;;;;;;;5061090;28;19917;-58
2022/01/31 12:32:40;;;;;;;;;;;7.30;99.90;;;;;;5047798;28;20349;-61
2022/01/31 12:35:11;;;;;;;;;;;7.50;99.90;;;;;;5036045;28;19923;-61
2022/01/31 12:37:38;;;;;;;;;;;;;;;;;;5053766;28;19960;-61
2022/01/31 12:40:20;;;;;;;;;;;7.60;99.90;;;;;;5053774;28;20334;-61
2022/01/31 12:45:26;;;;;;;;;;;;;;;;;;5038389;28;19917;-61
2022/01/31 12:48:12;;;;;;;;;;;7.80;99.90;;;;;;5038230;28;19940;-62
2022/01/31 12:50:38;;;;;;;;;;;7.90;99.90;;;;;;5037626;28;19924;-61
2022/01/31 12:53:06;;;;;;;;;;;7.70;99.90;;;;;;5036301;28;19917;-61
2022/01/31 12:55:32;;;;;;;;;;;;;;;;;;5052903;28;19917;-61
2022/01/31 12:57:58;;;;;;;;;;;7.70;99.90;;;;;;5037536;28;19928;-62
2022/01/31 13:00:40;;;;;;;;;;;7.60;99.90;;;;;;5036571;28;19960;-62
2022/01/31 13:03:06;;;;;;;;;;;;;;;;;;5051742;28;20350;-61
2022/01/31 13:05:32;;;;;;;;;;;7.80;99.90;;;;;;5021329;28;19928;-61
2022/01/31 13:07:58;;;;;;;;;;;7.90;99.90;;;;;;5057234;28;19921;-63
2022/01/31 13:10:23;;;;;;;;;;;7.50;99.90;;;;;;5056908;28;19986;-57
2022/01/31 13:13:03;;;;;;;;;;;7.40;99.90;;;;;;5062249;28;19916;-61
2022/01/31 13:15:29;;;;;;;;;;;7.70;99.90;;;;;;5036767;28;20011;-61
2022/01/31 13:18:04;;;;;;;;;;;7.30;99.90;;;;;;5037147;28;20000;-61
2022/01/31 13:20:30;;;;;;;;;;;7.60;99.90;;;;;;5037719;28;19917;-65
2022/01/31 13:22:56;;;;;;;;;;;7.50;99.90;;;;;;5047808;28;20262;-62
2022/01/31 13:25:22;;;;;;;;;;;7.40;99.90;;;;;;5046963;28;19943;-62
2022/01/31 13:27:47;;;;;;;;;;;7.50;99.90;;;;;;5037465;28;19928;-61
2022/01/31 13:30:22;;;;;;;;;;;7.50;99.90;;;;;;5043598;28;19920;-61
2022/01/31 13:32:48;;;;;;;;;;;7.70;99.90;;;;;;5038602;28;19921;-59
2022/01/31 13:35:14;;;;;;;;;;;;;;;;;;5056101;28;19923;-61
2022/01/31 13:37:45;;;;;;;;;;;7.40;99.90;;;;;;5049927;28;20011;-61
2022/01/31 13:40:15;;;;;;;;;;;7.70;99.90;;;;;;5056831;28;19971;-58
2022/01/31 13:42:42;;;;;;;;;;;7.20;99.90;;;;;;5056477;28;19924;-61
2022/01/31 13:45:12;;;;;;;;;;;7.50;99.90;;;;;;5057270;28;19917;-61
2022/01/31 13:47:48;;;;;;;;;;;7.50;99.90;;;;;;5056395;28;19975;-61
2022/01/31 13:50:26;;;;;;;;;;;7.80;99.90;;;;;;5039369;28;19923;-61
2022/01/31 13:52:52;;;;;;;;;;;7.70;99.90;;;;;;5038690;28;19917;-61
2022/01/31 13:55:18;;;;;;;;;;;7.40;99.90;;;;;;5056100;28;19927;-61
2022/01/31 13:57:45;;;;;;;;;;;7.50;99.90;;;;;;5056367;28;19917;-60
2022/01/31 14:00:10;;;;;;;;;;;7.40;99.90;;;;;;5021981;28;19921;-61
2022/01/31 14:02:38;;;;;;;;;;;7.50;99.90;;;;;;5056730;28;19917;-61
2022/01/31 14:05:04;;;;;;;;;;;;;;;;;;5056157;28;19923;-61
2022/01/31 14:07:31;;;;;;;;;;;7.50;99.90;;;;;;5056045;28;19917;-62
2022/01/31 14:09:57;;;;;;;;;;;7.20;99.90;;;;;;5056030;28;19917;-62
2022/01/31 14:12:24;;;;;;;;;;;7.40;99.90;;;;;;5056829;28;19917;-58
2022/01/31 14:14:49;;;;;;;;;;;7.30;99.90;;;;;;5054731;28;20020;-61
2022/01/31 14:17:15;;;;;;;;;;;7.60;99.90;;;;;;5002267;28;19956;-60
2022/01/31 14:19:40;;;;;;;;;;;7.40;99.90;;;;;;5036046;28;20306;-61
2022/01/31 14:22:07;;;;;;;;;;;7.40;99.90;;;;;;5035748;28;19944;-61
2022/01/31 14:24:33;;;;;;;;;;;7.40;99.90;;;;;;5035319;28;19923;-61
2022/01/31 14:27:04;;;;;;;;;;;7.70;99.90;;;;;;5035821;28;20015;-61
2022/01/31 14:29:31;;;;;;;;;;;7.50;99.90;;;;;;5035548;28;20457;-61
2022/01/31 14:31:58;;;;;;;;;;;;;;;;;;5034434;28;20373;-58
2022/01/31 14:34:25;;;;;;;;;;;7.70;99.90;;;;;;5035654;28;20015;-61
2022/01/31 14:36:53;;;;;;;;;;;7.60;99.90;;;;;;5018824;28;19928;-62
2022/01/31 14:42:09;;;;;;;;;;;;;;;;;;5017750;28;19924;-58
2022/01/31 14:47:23;;;;;;;;;;;7.70;99.90;;;;;;5021093;28;19924;-61
2022/01/31 14:50:09;;;;;;;;;;;7.60;99.90;;;;;;5035428;28;19917;-60
2022/01/31 14:52:35;;;;;;;;;;;7.40;99.90;;;;;;5035808;28;20289;-60
2022/01/31 14:55:02;;;;;;;;;;;7.70;99.90;;;;;;5035188;28;20011;-61
2022/01/31 14:57:28;;;;;;;;;;;;;;;;;;5034845;28;20277;-62
2022/01/31 14:59:54;;;;;;;;;;;7.60;99.90;;;;;;5017804;28;19917;-61
2022/01/31 15:02:19;;;;;;;;;;;7.30;99.90;;;;;;5035156;28;19917;-61
2022/01/31 15:04:45;;;;;;;;;;;7.40;99.90;;;;;;5034600;28;19924;-61
2022/01/31 15:07:12;;;;;;;;;;;7.20;99.90;;;;;;5035645;28;19927;-61
2022/01/31 15:09:38;;;;;;;;;;;;;;;;;;5017312;28;19921;-61
2022/01/31 15:12:04;;;;;;;;;;;;;;;;;;5034930;28;19917;-61
2022/01/31 15:14:29;;;;;;;;;;;6.90;99.90;;;;;;5017216;28;19923;-61
2022/01/31 15:16:56;;;;;;;;;;;;;;;;;;5034866;28;19917;-62
2022/01/31 15:19:22;;;;;;;;;;;6.90;99.90;;;;;;5017999;28;19967;-62
2022/01/31 15:21:48;;;;;;;;;;;;;;;;;;5034714;28;19925;-61